sensor_id;sensor_type;location;lat;lon;timestamp;pressure;altitude;pressure_sealevel;temperature;humidity
13456;BME280;6800;50.940;6.940;2022-09-09T00:04:00;100114.03;;;29.74;36.77
13456;BME280;6800;50.940;6.940;2022-09-09T00:08:03;100116.19;;;29.66;36.87
13456;BME280;6800;50.940;6.940;2022-09-09T00:12:12;100108.66;;;29.56;37.26
13456;BME280;6800;50.940;6.940;2022-09-09T00:16:19;100107.66;;;29.51;37.73
13456;BME280;6800;50.940;6.940;2022-09-09T00:20:59;100104.22;;;29.44;37.17
13456;BME280;6800;50.940;6.940;2022-09-09T00:25:17;100097.63;;;29.21;38.34
13456;BME280;6800;50.940;6.940;2022-09-09T00:29:28;100096.16;;;29.01;38.30
13456;BME280;6800;50.940;6.940;2022-09-09T00:33:33;100102.16;;;29.21;37.73
13456;BME280;6800;50.940;6.940;2022-09-09T00:37:34;100103.38;;;29.25;37.68
13456;BME280;6800;50.940;6.940;2022-09-09T00:41:53;100110.19;;;29.27;37.06
13456;BME280;6800;50.940;6.940;2022-09-09T00:54:34;100099.84;;;29.00;36.74
13456;BME280;6800;50.940;6.940;2022-09-09T00:58:38;100100.34;;;29.15;36.75
13456;BME280;6800;50.940;6.940;2022-09-09T01:02:46;100107.22;;;29.11;36.53
13456;BME280;6800;50.940;6.940;2022-09-09T01:06:54;100103.81;;;28.97;36.80
13456;BME280;6800;50.940;6.940;2022-09-09T01:10:59;100103.13;;;28.84;36.66
13456;BME280;6800;50.940;6.940;2022-09-09T01:15:22;100101.84;;;28.55;37.36
13456;BME280;6800;50.940;6.940;2022-09-09T01:28:04;100100.81;;;28.63;37.53
13456;BME280;6800;50.940;6.940;2022-09-09T01:32:40;100098.91;;;28.63;37.52
13456;BME280;6800;50.940;6.940;2022-09-09T01:36:49;100093.06;;;28.73;36.91
13456;BME280;6800;50.940;6.940;2022-09-09T01:40:52;100098.44;;;28.73;37.68
13456;BME280;6800;50.940;6.940;2022-09-09T01:44:53;100091.91;;;28.62;37.68
13456;BME280;6800;50.940;6.940;2022-09-09T01:48:55;100101.31;;;28.40;37.94
13456;BME280;6800;50.940;6.940;2022-09-09T01:52:58;100108.88;;;28.63;38.06
13456;BME280;6800;50.940;6.940;2022-09-09T01:57:18;100113.66;;;28.54;38.19
13456;BME280;6800;50.940;6.940;2022-09-09T02:01:42;100110.94;;;28.85;37.64
13456;BME280;6800;50.940;6.940;2022-09-09T02:06:00;100106.50;;;28.73;38.17
13456;BME280;6800;50.940;6.940;2022-09-09T02:10:12;100115.91;;;28.19;38.89
13456;BME280;6800;50.940;6.940;2022-09-09T02:14:18;100105.16;;;28.88;37.29
13456;BME280;6800;50.940;6.940;2022-09-09T02:18:28;100110.41;;;28.45;38.53
13456;BME280;6800;50.940;6.940;2022-09-09T02:22:31;100111.41;;;28.44;38.28
13456;BME280;6800;50.940;6.940;2022-09-09T02:26:37;100105.13;;;28.64;38.15
13456;BME280;6800;50.940;6.940;2022-09-09T02:30:41;100107.47;;;28.47;38.21
13456;BME280;6800;50.940;6.940;2022-09-09T02:34:47;100098.59;;;28.46;38.52
13456;BME280;6800;50.940;6.940;2022-09-09T02:38:49;100093.03;;;28.48;38.72
13456;BME280;6800;50.940;6.940;2022-09-09T02:42:54;100094.09;;;28.72;38.22
13456;BME280;6800;50.940;6.940;2022-09-09T02:51:24;100094.03;;;28.78;37.82
13456;BME280;6800;50.940;6.940;2022-09-09T02:55:38;100098.06;;;28.69;37.63
13456;BME280;6800;50.940;6.940;2022-09-09T02:59:40;100097.00;;;28.08;39.15
13456;BME280;6800;50.940;6.940;2022-09-09T03:03:41;100092.41;;;28.46;38.22
13456;BME280;6800;50.940;6.940;2022-09-09T03:07:42;100084.44;;;28.64;37.84
13456;BME280;6800;50.940;6.940;2022-09-09T03:11:42;100077.00;;;28.66;37.88
13456;BME280;6800;50.940;6.940;2022-09-09T03:15:42;100074.91;;;28.68;37.82
13456;BME280;6800;50.940;6.940;2022-09-09T03:19:43;100078.44;;;28.69;37.57
13456;BME280;6800;50.940;6.940;2022-09-09T03:23:44;100081.44;;;28.79;37.41
13456;BME280;6800;50.940;6.940;2022-09-09T03:27:45;100073.75;;;29.07;36.84
13456;BME280;6800;50.940;6.940;2022-09-09T03:31:45;100081.94;;;28.69;38.24
13456;BME280;6800;50.940;6.940;2022-09-09T03:35:46;100077.66;;;28.86;37.78
13456;BME280;6800;50.940;6.940;2022-09-09T03:39:49;100078.69;;;28.61;38.16
13456;BME280;6800;50.940;6.940;2022-09-09T03:43:53;100077.50;;;28.57;38.34
13456;BME280;6800;50.940;6.940;2022-09-09T03:47:54;100080.09;;;28.63;38.60
13456;BME280;6800;50.940;6.940;2022-09-09T03:51:55;100081.75;;;28.89;37.55
13456;BME280;6800;50.940;6.940;2022-09-09T03:55:57;100093.41;;;28.20;38.73
13456;BME280;6800;50.940;6.940;2022-09-09T03:59:59;100095.03;;;28.52;38.20
13456;BME280;6800;50.940;6.940;2022-09-09T04:04:01;100090.28;;;28.86;37.85
13456;BME280;6800;50.940;6.940;2022-09-09T04:08:02;100082.84;;;29.06;37.08
13456;BME280;6800;50.940;6.940;2022-09-09T04:12:02;100079.13;;;29.07;37.46
13456;BME280;6800;50.940;6.940;2022-09-09T04:16:03;100078.25;;;28.64;38.27
13456;BME280;6800;50.940;6.940;2022-09-09T04:20:04;100077.31;;;28.20;39.28
13456;BME280;6800;50.940;6.940;2022-09-09T04:24:05;100066.75;;;28.81;37.72
13456;BME280;6800;50.940;6.940;2022-09-09T04:28:05;100069.31;;;28.70;37.98
13456;BME280;6800;50.940;6.940;2022-09-09T04:32:05;100068.38;;;28.82;37.64
13456;BME280;6800;50.940;6.940;2022-09-09T04:36:06;100084.03;;;29.10;37.46
13456;BME280;6800;50.940;6.940;2022-09-09T04:40:08;100084.22;;;28.66;38.32
13456;BME280;6800;50.940;6.940;2022-09-09T04:44:09;100078.81;;;29.15;37.56
13456;BME280;6800;50.940;6.940;2022-09-09T04:48:10;100085.28;;;29.14;37.15
13456;BME280;6800;50.940;6.940;2022-09-09T04:52:10;100090.53;;;29.27;37.00
13456;BME280;6800;50.940;6.940;2022-09-09T04:56:13;100086.28;;;28.95;37.66
13456;BME280;6800;50.940;6.940;2022-09-09T05:00:14;100094.75;;;29.41;36.65
13456;BME280;6800;50.940;6.940;2022-09-09T05:04:14;100093.63;;;28.50;38.33
13456;BME280;6800;50.940;6.940;2022-09-09T05:08:16;100103.94;;;28.22;39.20
13456;BME280;6800;50.940;6.940;2022-09-09T05:12:16;100087.84;;;29.02;37.89
13456;BME280;6800;50.940;6.940;2022-09-09T05:16:17;100098.38;;;28.17;38.90
13456;BME280;6800;50.940;6.940;2022-09-09T05:20:17;100089.22;;;28.31;38.63
13456;BME280;6800;50.940;6.940;2022-09-09T05:24:18;100083.72;;;28.44;39.01
13456;BME280;6800;50.940;6.940;2022-09-09T05:28:18;100081.59;;;28.52;38.69
13456;BME280;6800;50.940;6.940;2022-09-09T05:32:19;100090.25;;;28.30;39.15
13456;BME280;6800;50.940;6.940;2022-09-09T05:36:21;100103.03;;;28.34;39.39
13456;BME280;6800;50.940;6.940;2022-09-09T05:40:21;100095.19;;;28.89;38.59
13456;BME280;6800;50.940;6.940;2022-09-09T05:44:22;100105.38;;;27.73;40.11
13456;BME280;6800;50.940;6.940;2022-09-09T05:48:27;100104.16;;;28.20;39.48
13456;BME280;6800;50.940;6.940;2022-09-09T05:52:27;100094.66;;;28.80;38.64
13456;BME280;6800;50.940;6.940;2022-09-09T05:56:28;100107.28;;;29.04;37.85
13456;BME280;6800;50.940;6.940;2022-09-09T06:00:29;100101.13;;;28.97;37.42
13456;BME280;6800;50.940;6.940;2022-09-09T06:04:31;100103.44;;;28.69;38.10
13456;BME280;6800;50.940;6.940;2022-09-09T06:08:33;100091.75;;;28.82;37.40
13456;BME280;6800;50.940;6.940;2022-09-09T06:12:33;100108.59;;;28.39;38.13
13456;BME280;6800;50.940;6.940;2022-09-09T06:16:34;100098.81;;;28.45;38.34
13456;BME280;6800;50.940;6.940;2022-09-09T06:20:35;100105.63;;;28.47;37.87
13456;BME280;6800;50.940;6.940;2022-09-09T06:24:35;100105.94;;;28.89;37.52
13456;BME280;6800;50.940;6.940;2022-09-09T06:28:36;100103.97;;;29.02;37.23
13456;BME280;6800;50.940;6.940;2022-09-09T06:32:36;100097.78;;;28.77;37.24
13456;BME280;6800;50.940;6.940;2022-09-09T06:36:38;100104.59;;;29.04;37.13
13456;BME280;6800;50.940;6.940;2022-09-09T06:40:38;100101.56;;;28.94;37.27
13456;BME280;6800;50.940;6.940;2022-09-09T06:44:39;100098.41;;;28.79;37.33
13456;BME280;6800;50.940;6.940;2022-09-09T06:48:41;100093.81;;;29.04;36.61
13456;BME280;6800;50.940;6.940;2022-09-09T06:52:48;100096.81;;;28.96;36.71
13456;BME280;6800;50.940;6.940;2022-09-09T06:56:49;100096.97;;;29.62;35.81
13456;BME280;6800;50.940;6.940;2022-09-09T07:00:50;100092.00;;;30.14;34.72
13456;BME280;6800;50.940;6.940;2022-09-09T07:04:50;100086.75;;;30.90;33.34
13456;BME280;6800;50.940;6.940;2022-09-09T07:08:52;100085.22;;;31.17;32.40
13456;BME280;6800;50.940;6.940;2022-09-09T07:12:53;100084.50;;;30.98;32.41
13456;BME280;6800;50.940;6.940;2022-09-09T07:16:53;100088.84;;;31.34;32.44
13456;BME280;6800;50.940;6.940;2022-09-09T07:20:54;100078.19;;;32.96;29.72
13456;BME280;6800;50.940;6.940;2022-09-09T07:24:56;100090.25;;;32.27;29.98
13456;BME280;6800;50.940;6.940;2022-09-09T07:28:57;100098.75;;;32.48;29.45
13456;BME280;6800;50.940;6.940;2022-09-09T07:32:57;100100.78;;;33.40;28.47
13456;BME280;6800;50.940;6.940;2022-09-09T07:36:59;100106.97;;;34.22;27.22
13456;BME280;6800;50.940;6.940;2022-09-09T07:41:07;100110.59;;;34.06;27.26
13456;BME280;6800;50.940;6.940;2022-09-09T07:45:11;100113.16;;;33.96;27.72
13456;BME280;6800;50.940;6.940;2022-09-09T07:49:12;100113.63;;;34.36;26.33
13456;BME280;6800;50.940;6.940;2022-09-09T07:53:12;100120.91;;;35.68;24.24
13456;BME280;6800;50.940;6.940;2022-09-09T07:57:13;100112.34;;;35.44;24.35
13456;BME280;6800;50.940;6.940;2022-09-09T08:01:16;100123.50;;;35.06;24.41
13456;BME280;6800;50.940;6.940;2022-09-09T08:05:18;100120.28;;;34.24;25.71
13456;BME280;6800;50.940;6.940;2022-09-09T08:09:18;100127.69;;;32.64;27.82
13456;BME280;6800;50.940;6.940;2022-09-09T08:13:18;100133.44;;;31.48;29.10
13456;BME280;6800;50.940;6.940;2022-09-09T08:17:18;100128.25;;;31.35;29.66
13456;BME280;6800;50.940;6.940;2022-09-09T08:21:30;100129.13;;;31.98;28.48
13456;BME280;6800;50.940;6.940;2022-09-09T08:25:31;100136.75;;;31.90;28.57
13456;BME280;6800;50.940;6.940;2022-09-09T08:29:31;100132.56;;;31.71;28.94
13456;BME280;6800;50.940;6.940;2022-09-09T08:33:32;100122.63;;;32.39;28.21
13456;BME280;6800;50.940;6.940;2022-09-09T08:37:33;100135.72;;;32.02;28.17
13456;BME280;6800;50.940;6.940;2022-09-09T08:46:00;100125.91;;;33.36;25.35
13456;BME280;6800;50.940;6.940;2022-09-09T08:54:55;100132.97;;;31.28;27.78
13456;BME280;6800;50.940;6.940;2022-09-09T08:59:00;100136.13;;;32.51;26.28
13456;BME280;6800;50.940;6.940;2022-09-09T09:03:15;100134.09;;;32.91;25.72
13456;BME280;6800;50.940;6.940;2022-09-09T09:11:26;100137.53;;;33.96;24.24
13456;BME280;6800;50.940;6.940;2022-09-09T09:15:31;100137.88;;;33.78;24.81
13456;BME280;6800;50.940;6.940;2022-09-09T09:19:39;100134.28;;;33.18;25.95
13456;BME280;6800;50.940;6.940;2022-09-09T09:23:47;100153.28;;;32.45;26.76
13456;BME280;6800;50.940;6.940;2022-09-09T09:27:57;100144.41;;;32.61;26.62
13456;BME280;6800;50.940;6.940;2022-09-09T09:32:07;100148.34;;;32.42;27.31
13456;BME280;6800;50.940;6.940;2022-09-09T09:36:10;100150.91;;;31.57;28.07
13456;BME280;6800;50.940;6.940;2022-09-09T09:40:12;100153.88;;;32.47;27.10
13456;BME280;6800;50.940;6.940;2022-09-09T09:44:25;100149.50;;;32.57;27.08
13456;BME280;6800;50.940;6.940;2022-09-09T09:48:26;100156.81;;;32.17;27.87
13456;BME280;6800;50.940;6.940;2022-09-09T09:52:31;100157.22;;;31.39;28.25
13456;BME280;6800;50.940;6.940;2022-09-09T09:56:32;100151.50;;;31.59;28.61
13456;BME280;6800;50.940;6.940;2022-09-09T10:00:33;100153.47;;;32.83;27.05
13456;BME280;6800;50.940;6.940;2022-09-09T10:04:35;100152.78;;;32.76;27.09
13456;BME280;6800;50.940;6.940;2022-09-09T10:08:44;100136.41;;;33.92;25.35
13456;BME280;6800;50.940;6.940;2022-09-09T10:13:08;100146.69;;;32.69;26.31
13456;BME280;6800;50.940;6.940;2022-09-09T10:17:37;100148.28;;;32.81;26.03
13456;BME280;6800;50.940;6.940;2022-09-09T10:21:48;100141.19;;;33.25;25.68
13456;BME280;6800;50.940;6.940;2022-09-09T10:26:05;100145.97;;;32.45;26.79
13456;BME280;6800;50.940;6.940;2022-09-09T10:30:18;100154.94;;;31.43;28.40
13456;BME280;6800;50.940;6.940;2022-09-09T10:38:50;100134.47;;;33.49;25.90
13456;BME280;6800;50.940;6.940;2022-09-09T10:43:00;100132.69;;;33.76;25.63
13456;BME280;6800;50.940;6.940;2022-09-09T10:47:28;100133.91;;;33.47;25.77
13456;BME280;6800;50.940;6.940;2022-09-09T10:52:10;100121.91;;;33.60;25.21
13456;BME280;6800;50.940;6.940;2022-09-09T10:56:16;100132.38;;;35.75;22.54
13456;BME280;6800;50.940;6.940;2022-09-09T11:04:22;100120.00;;;37.65;20.89
13456;BME280;6800;50.940;6.940;2022-09-09T11:08:29;100124.44;;;35.68;22.63
13456;BME280;6800;50.940;6.940;2022-09-09T11:12:30;100118.59;;;35.45;23.13
13456;BME280;6800;50.940;6.940;2022-09-09T11:16:40;100116.22;;;35.53;23.03
13456;BME280;6800;50.940;6.940;2022-09-09T11:20:43;100122.50;;;34.85;23.42
13456;BME280;6800;50.940;6.940;2022-09-09T11:24:52;100118.06;;;34.74;23.63
13456;BME280;6800;50.940;6.940;2022-09-09T11:38:37;100106.66;;;32.99;25.53
13456;BME280;6800;50.940;6.940;2022-09-09T11:42:41;100106.53;;;31.65;26.90
13456;BME280;6800;50.940;6.940;2022-09-09T11:46:42;100116.81;;;31.79;26.88
13456;BME280;6800;50.940;6.940;2022-09-09T11:50:57;100108.88;;;33.02;25.60
13456;BME280;6800;50.940;6.940;2022-09-09T11:55:08;100107.56;;;33.21;25.51
13456;BME280;6800;50.940;6.940;2022-09-09T11:59:29;100097.88;;;33.08;25.11
13456;BME280;6800;50.940;6.940;2022-09-09T12:03:48;100108.78;;;32.64;25.94
13456;BME280;6800;50.940;6.940;2022-09-09T12:07:56;100107.84;;;32.75;25.75
13456;BME280;6800;50.940;6.940;2022-09-09T12:16:32;100108.47;;;33.10;24.94
13456;BME280;6800;50.940;6.940;2022-09-09T12:20:37;100117.97;;;31.95;26.64
13456;BME280;6800;50.940;6.940;2022-09-09T12:24:57;100110.81;;;32.45;25.90
13456;BME280;6800;50.940;6.940;2022-09-09T12:29:25;100099.25;;;33.49;24.41
13456;BME280;6800;50.940;6.940;2022-09-09T12:33:34;100102.25;;;34.13;23.73
13456;BME280;6800;50.940;6.940;2022-09-09T12:37:35;100110.25;;;33.81;24.34
13456;BME280;6800;50.940;6.940;2022-09-09T12:41:36;100097.94;;;32.97;25.63
13456;BME280;6800;50.940;6.940;2022-09-09T12:45:40;100093.84;;;33.11;25.63
13456;BME280;6800;50.940;6.940;2022-09-09T12:49:41;100092.41;;;33.42;25.50
13456;BME280;6800;50.940;6.940;2022-09-09T12:53:41;100101.13;;;32.94;25.94
13456;BME280;6800;50.940;6.940;2022-09-09T12:57:43;100094.78;;;33.55;26.46
13456;BME280;6800;50.940;6.940;2022-09-09T13:01:43;100080.63;;;34.18;24.79
13456;BME280;6800;50.940;6.940;2022-09-09T13:05:43;100074.94;;;34.46;24.66
13456;BME280;6800;50.940;6.940;2022-09-09T13:09:45;100070.69;;;34.55;24.22
13456;BME280;6800;50.940;6.940;2022-09-09T13:13:51;100074.16;;;33.97;24.50
13456;BME280;6800;50.940;6.940;2022-09-09T13:17:56;100077.25;;;34.59;24.17
13456;BME280;6800;50.940;6.940;2022-09-09T13:21:57;100065.88;;;34.62;24.82
13456;BME280;6800;50.940;6.940;2022-09-09T13:26:00;100069.31;;;34.26;24.85
13456;BME280;6800;50.940;6.940;2022-09-09T13:30:01;100069.41;;;34.63;24.34
13456;BME280;6800;50.940;6.940;2022-09-09T13:38:28;100067.66;;;33.33;26.32
13456;BME280;6800;50.940;6.940;2022-09-09T13:42:32;100063.38;;;32.99;26.94
13456;BME280;6800;50.940;6.940;2022-09-09T13:46:39;100058.75;;;34.24;25.27
13456;BME280;6800;50.940;6.940;2022-09-09T13:50:40;100057.00;;;34.40;25.64
13456;BME280;6800;50.940;6.940;2022-09-09T13:54:41;100048.97;;;33.15;26.52
13456;BME280;6800;50.940;6.940;2022-09-09T13:58:42;100052.13;;;33.07;26.67
13456;BME280;6800;50.940;6.940;2022-09-09T14:02:42;100050.66;;;33.38;26.32
13456;BME280;6800;50.940;6.940;2022-09-09T14:06:44;100050.56;;;33.33;27.17
13456;BME280;6800;50.940;6.940;2022-09-09T14:10:44;100047.97;;;32.83;27.66
13456;BME280;6800;50.940;6.940;2022-09-09T14:14:45;100059.69;;;32.72;27.80
13456;BME280;6800;50.940;6.940;2022-09-09T14:18:46;100058.38;;;32.13;28.64
13456;BME280;6800;50.940;6.940;2022-09-09T14:22:46;100066.66;;;32.51;28.27
13456;BME280;6800;50.940;6.940;2022-09-09T14:26:46;100055.81;;;33.01;27.49
13456;BME280;6800;50.940;6.940;2022-09-09T14:30:48;100067.53;;;33.06;27.15
13456;BME280;6800;50.940;6.940;2022-09-09T14:34:49;100083.22;;;32.43;33.12
13456;BME280;6800;50.940;6.940;2022-09-09T14:38:50;100089.91;;;31.44;36.49
13456;BME280;6800;50.940;6.940;2022-09-09T14:42:52;100097.72;;;30.76;39.35
13456;BME280;6800;50.940;6.940;2022-09-09T14:46:53;100102.44;;;30.93;39.67
13456;BME280;6800;50.940;6.940;2022-09-09T14:50:54;100098.84;;;30.57;40.27
13456;BME280;6800;50.940;6.940;2022-09-09T14:54:55;100101.78;;;30.56;39.89
13456;BME280;6800;50.940;6.940;2022-09-09T14:58:56;100092.75;;;30.62;39.38
13456;BME280;6800;50.940;6.940;2022-09-09T15:02:57;100100.44;;;31.23;37.93
13456;BME280;6800;50.940;6.940;2022-09-09T15:06:58;100091.66;;;31.16;37.25
13456;BME280;6800;50.940;6.940;2022-09-09T15:11:00;100091.91;;;31.49;37.33
13456;BME280;6800;50.940;6.940;2022-09-09T15:15:01;100090.66;;;30.75;36.86
13456;BME280;6800;50.940;6.940;2022-09-09T15:19:02;100090.81;;;31.62;36.66
13456;BME280;6800;50.940;6.940;2022-09-09T15:23:03;100098.28;;;31.83;35.93
13456;BME280;6800;50.940;6.940;2022-09-09T15:27:03;100103.19;;;31.97;36.14
13456;BME280;6800;50.940;6.940;2022-09-09T15:31:10;100106.00;;;32.02;36.19
13456;BME280;6800;50.940;6.940;2022-09-09T15:35:11;100106.25;;;31.89;36.31
13456;BME280;6800;50.940;6.940;2022-09-09T15:39:13;100089.78;;;31.91;37.09
13456;BME280;6800;50.940;6.940;2022-09-09T15:43:15;100090.25;;;31.02;36.96
13456;BME280;6800;50.940;6.940;2022-09-09T15:47:16;100094.00;;;31.24;36.99
13456;BME280;6800;50.940;6.940;2022-09-09T15:51:16;100095.19;;;31.28;37.17
13456;BME280;6800;50.940;6.940;2022-09-09T15:55:16;100111.13;;;31.06;38.67
13456;BME280;6800;50.940;6.940;2022-09-09T16:07:44;100110.19;;;29.64;39.59
13456;BME280;6800;50.940;6.940;2022-09-09T16:11:45;100114.41;;;29.78;38.92
13456;BME280;6800;50.940;6.940;2022-09-09T16:15:54;100118.59;;;29.74;39.68
13456;BME280;6800;50.940;6.940;2022-09-09T16:19:54;100120.81;;;29.95;38.87
13456;BME280;6800;50.940;6.940;2022-09-09T16:23:55;100129.78;;;29.53;38.99
13456;BME280;6800;50.940;6.940;2022-09-09T16:27:55;100126.13;;;29.65;39.18
13456;BME280;6800;50.940;6.940;2022-09-09T16:31:57;100129.84;;;29.46;39.57
13456;BME280;6800;50.940;6.940;2022-09-09T16:36:07;100123.22;;;29.85;39.51
13456;BME280;6800;50.940;6.940;2022-09-09T16:40:08;100120.66;;;30.08;38.24
13456;BME280;6800;50.940;6.940;2022-09-09T16:44:10;100121.84;;;30.12;38.33
13456;BME280;6800;50.940;6.940;2022-09-09T16:48:11;100121.59;;;29.84;38.04
13456;BME280;6800;50.940;6.940;2022-09-09T16:57:13;100140.50;;;29.95;38.41
13456;BME280;6800;50.940;6.940;2022-09-09T17:01:13;100140.56;;;29.71;39.36
13456;BME280;6800;50.940;6.940;2022-09-09T17:05:14;100142.19;;;29.72;39.74
13456;BME280;6800;50.940;6.940;2022-09-09T17:09:15;100150.44;;;30.13;39.10
13456;BME280;6800;50.940;6.940;2022-09-09T17:13:16;100156.09;;;29.51;40.30
13456;BME280;6800;50.940;6.940;2022-09-09T17:17:19;100155.34;;;29.44;40.05
13456;BME280;6800;50.940;6.940;2022-09-09T17:21:23;100161.34;;;29.64;39.57
13456;BME280;6800;50.940;6.940;2022-09-09T17:25:25;100172.22;;;29.51;39.71
13456;BME280;6800;50.940;6.940;2022-09-09T17:29:25;100167.41;;;29.10;40.55
13456;BME280;6800;50.940;6.940;2022-09-09T17:33:27;100174.69;;;29.34;40.09
13456;BME280;6800;50.940;6.940;2022-09-09T17:37:31;100171.31;;;29.39;39.75
13456;BME280;6800;50.940;6.940;2022-09-09T17:41:33;100174.31;;;29.30;40.17
13456;BME280;6800;50.940;6.940;2022-09-09T17:45:34;100173.78;;;29.40;40.04
13456;BME280;6800;50.940;6.940;2022-09-09T17:49:35;100174.19;;;29.44;39.83
13456;BME280;6800;50.940;6.940;2022-09-09T17:53:39;100185.63;;;29.57;39.28
13456;BME280;6800;50.940;6.940;2022-09-09T17:57:41;100193.34;;;29.29;39.50
13456;BME280;6800;50.940;6.940;2022-09-09T18:01:45;100192.03;;;29.38;38.79
13456;BME280;6800;50.940;6.940;2022-09-09T18:05:45;100207.91;;;29.15;39.33
13456;BME280;6800;50.940;6.940;2022-09-09T18:09:46;100197.84;;;29.04;39.36
13456;BME280;6800;50.940;6.940;2022-09-09T18:13:51;100200.44;;;28.92;39.75
13456;BME280;6800;50.940;6.940;2022-09-09T18:17:52;100208.66;;;29.28;39.04
13456;BME280;6800;50.940;6.940;2022-09-09T18:21:52;100217.38;;;28.93;39.17
13456;BME280;6800;50.940;6.940;2022-09-09T18:25:53;100217.84;;;29.14;39.37
13456;BME280;6800;50.940;6.940;2022-09-09T18:29:54;100210.94;;;28.69;40.28
13456;BME280;6800;50.940;6.940;2022-09-09T18:33:56;100199.81;;;29.21;39.37
13456;BME280;6800;50.940;6.940;2022-09-09T18:37:57;100211.97;;;28.68;39.97
13456;BME280;6800;50.940;6.940;2022-09-09T18:41:59;100218.00;;;28.57;41.11
13456;BME280;6800;50.940;6.940;2022-09-09T18:46:03;100218.00;;;28.50;41.14
13456;BME280;6800;50.940;6.940;2022-09-09T18:50:04;100225.22;;;28.63;40.69
13456;BME280;6800;50.940;6.940;2022-09-09T18:54:07;100220.88;;;28.62;40.24
13456;BME280;6800;50.940;6.940;2022-09-09T18:58:09;100219.94;;;28.43;40.54
13456;BME280;6800;50.940;6.940;2022-09-09T19:02:10;100222.38;;;28.89;40.13
13456;BME280;6800;50.940;6.940;2022-09-09T19:06:15;100223.31;;;28.70;40.01
13456;BME280;6800;50.940;6.940;2022-09-09T19:10:15;100225.63;;;28.67;40.35
13456;BME280;6800;50.940;6.940;2022-09-09T19:14:16;100227.78;;;28.83;39.96
13456;BME280;6800;50.940;6.940;2022-09-09T19:18:17;100220.09;;;28.48;40.57
13456;BME280;6800;50.940;6.940;2022-09-09T19:22:17;100231.66;;;28.49;40.44
13456;BME280;6800;50.940;6.940;2022-09-09T19:26:17;100227.09;;;28.63;40.12
13456;BME280;6800;50.940;6.940;2022-09-09T19:30:18;100239.72;;;28.49;40.07
13456;BME280;6800;50.940;6.940;2022-09-09T19:34:18;100243.50;;;28.35;40.27
13456;BME280;6800;50.940;6.940;2022-09-09T19:38:19;100251.22;;;28.25;40.31
13456;BME280;6800;50.940;6.940;2022-09-09T19:42:19;100243.84;;;28.51;40.09
13456;BME280;6800;50.940;6.940;2022-09-09T19:46:20;100251.28;;;28.56;40.08
13456;BME280;6800;50.940;6.940;2022-09-09T19:50:20;100257.31;;;28.45;39.97
13456;BME280;6800;50.940;6.940;2022-09-09T19:54:20;100264.84;;;28.17;40.25
13456;BME280;6800;50.940;6.940;2022-09-09T19:58:21;100267.66;;;28.41;39.70
13456;BME280;6800;50.940;6.940;2022-09-09T20:02:21;100275.16;;;28.20;40.50
13456;BME280;6800;50.940;6.940;2022-09-09T20:06:24;100283.75;;;28.48;39.75
13456;BME280;6800;50.940;6.940;2022-09-09T20:10:25;100275.81;;;28.09;40.13
13456;BME280;6800;50.940;6.940;2022-09-09T20:14:25;100284.75;;;28.53;39.61
13456;BME280;6800;50.940;6.940;2022-09-09T20:18:27;100279.13;;;27.84;40.59
13456;BME280;6800;50.940;6.940;2022-09-09T20:22:30;100284.22;;;28.25;40.11
13456;BME280;6800;50.940;6.940;2022-09-09T20:26:30;100275.09;;;28.46;39.71
13456;BME280;6800;50.940;6.940;2022-09-09T20:30:32;100283.09;;;28.52;39.45
13456;BME280;6800;50.940;6.940;2022-09-09T20:34:37;100294.91;;;28.45;39.62
13456;BME280;6800;50.940;6.940;2022-09-09T20:38:42;100296.22;;;28.23;40.13
13456;BME280;6800;50.940;6.940;2022-09-09T20:42:44;100295.66;;;28.08;40.29
13456;BME280;6800;50.940;6.940;2022-09-09T20:46:47;100293.16;;;28.77;39.06
13456;BME280;6800;50.940;6.940;2022-09-09T20:50:47;100300.53;;;28.30;39.94
13456;BME280;6800;50.940;6.940;2022-09-09T20:54:48;100297.81;;;28.50;39.47
13456;BME280;6800;50.940;6.940;2022-09-09T20:58:48;100298.63;;;28.57;39.78
13456;BME280;6800;50.940;6.940;2022-09-09T21:02:49;100291.66;;;28.30;40.24
13456;BME280;6800;50.940;6.940;2022-09-09T21:06:50;100292.22;;;28.58;39.70
13456;BME280;6800;50.940;6.940;2022-09-09T21:10:50;100290.50;;;27.60;41.71
13456;BME280;6800;50.940;6.940;2022-09-09T21:14:50;100287.09;;;28.37;40.14
13456;BME280;6800;50.940;6.940;2022-09-09T21:18:51;100284.69;;;28.09;40.53
13456;BME280;6800;50.940;6.940;2022-09-09T21:22:51;100277.72;;;27.69;40.99
13456;BME280;6800;50.940;6.940;2022-09-09T21:26:53;100275.41;;;27.92;41.15
13456;BME280;6800;50.940;6.940;2022-09-09T21:30:54;100274.81;;;27.70;41.56
13456;BME280;6800;50.940;6.940;2022-09-09T21:34:57;100281.41;;;28.01;40.39
13456;BME280;6800;50.940;6.940;2022-09-09T21:38:57;100280.56;;;28.07;40.17
13456;BME280;6800;50.940;6.940;2022-09-09T21:42:58;100279.75;;;27.87;40.45
13456;BME280;6800;50.940;6.940;2022-09-09T21:46:58;100274.41;;;27.80;40.84
13456;BME280;6800;50.940;6.940;2022-09-09T21:51:02;100277.09;;;27.80;41.00
13456;BME280;6800;50.940;6.940;2022-09-09T21:55:03;100278.31;;;27.84;40.46
13456;BME280;6800;50.940;6.940;2022-09-09T21:59:04;100283.69;;;27.91;40.42
13456;BME280;6800;50.940;6.940;2022-09-09T22:03:04;100287.81;;;27.87;40.16
13456;BME280;6800;50.940;6.940;2022-09-09T22:07:05;100287.59;;;27.42;41.28
13456;BME280;6800;50.940;6.940;2022-09-09T22:11:11;100288.22;;;27.77;40.69
13456;BME280;6800;50.940;6.940;2022-09-09T22:15:13;100288.66;;;27.61;41.10
13456;BME280;6800;50.940;6.940;2022-09-09T22:19:13;100288.81;;;27.92;39.96
13456;BME280;6800;50.940;6.940;2022-09-09T22:23:14;100287.59;;;27.68;40.75
13456;BME280;6800;50.940;6.940;2022-09-09T22:27:14;100290.28;;;27.95;40.50
13456;BME280;6800;50.940;6.940;2022-09-09T22:31:15;100288.81;;;27.92;39.98
13456;BME280;6800;50.940;6.940;2022-09-09T22:35:21;100287.59;;;28.08;39.23
13456;BME280;6800;50.940;6.940;2022-09-09T22:39:22;100278.09;;;27.86;40.07
13456;BME280;6800;50.940;6.940;2022-09-09T22:43:22;100289.22;;;27.96;39.91
13456;BME280;6800;50.940;6.940;2022-09-09T22:47:22;100282.66;;;27.72;39.98